LEZL/SVQ METAR and TAF weather

Enter ICAO airport designator
Station Type Date Time Source
LEZL METAR 2019/04/25 15:30 UTC NOAA

LEZL 251530Z 28013KT 9999 SCT049 20/10 Q1017 NOSIG


Station Type Date Time Source
LEZL Decoded METAR 2019/04/25 15:30 UTC NOAA

Sevilla / San Pablo, Spain (LEZL) 37-25N 005-54W 31M
Apr 25, 2019 - 11:30 AM EDT / 2019.04.25 1530 UTC
Wind: from the W (280 degrees) at 15 MPH (13 KT):0
Visibility: greater than 7 mile(s):0
Sky conditions: partly cloudy
Temperature: 68 F (20 C)
Dew Point: 50 F (10 C)
Relative Humidity: 52%
Pressure (altimeter): 30.03 in. Hg (1017 hPa)
ob: LEZL 251530Z 28013KT 9999 SCT049 20/10 Q1017 NOSIG
cycle: 15

Station Type Date Time Source
LEZL TAF 2019/04/25 15:30 UTC NOAA

TAF LEZL 251400Z 2515/2615 26010KT 9999 SCT020 BKN040 TX21/2515Z TN07/2603Z
BECMG 2519/2522 33004KT PROB40
TEMPO 2601/2607 3000 BR

Example: see airport list